createdAt,value
2023-02-14T00:01:07.776Z,102489.75
2023-02-14T00:04:09.200Z,102489.03
2023-02-14T00:07:11.490Z,102484.38
2023-02-14T00:10:12.854Z,102480.75
2023-02-14T00:13:14.295Z,102479.81
2023-02-14T00:16:15.811Z,102476.69
2023-02-14T00:19:18.487Z,102487.88
2023-02-14T00:22:19.879Z,102490.50
2023-02-14T00:25:21.332Z,102484.50
2023-02-14T00:28:22.732Z,102490.31
2023-02-14T00:31:24.329Z,102493.03
2023-02-14T00:34:26.345Z,102492.97
2023-02-14T00:37:27.727Z,102484.91
2023-02-14T00:40:29.183Z,102489.81
2023-02-14T00:43:32.657Z,102488.97
2023-02-14T00:46:34.263Z,102483.69
2023-02-14T00:49:35.935Z,102480.84
2023-02-14T00:52:37.343Z,102482.75
2023-02-14T00:55:38.768Z,102482.63
2023-02-14T00:58:41.051Z,102477.16
2023-02-14T01:01:42.597Z,102475.22
2023-02-14T01:04:44.385Z,102471.78
2023-02-14T01:07:45.804Z,102477.72
2023-02-14T01:10:47.414Z,102477.63
2023-02-14T01:13:50.071Z,102478.56
2023-02-14T01:16:51.530Z,102477.34
2023-02-14T01:19:53.868Z,102489.44
2023-02-14T01:22:55.264Z,102483.31
2023-02-14T01:25:56.640Z,102490.25
2023-02-14T01:28:58.320Z,102490.38
2023-02-14T01:31:59.800Z,102490.31
2023-02-14T01:35:01.568Z,102490.72
2023-02-14T01:38:03.011Z,102490.81
2023-02-14T01:41:04.514Z,102486.28
2023-02-14T01:44:15.086Z,102495.69
2023-02-14T01:47:17.397Z,102497.31
2023-02-14T01:50:41.506Z,102500.75
2023-02-14T01:53:43.310Z,102495.41
2023-02-14T01:56:50.609Z,102499.66
2023-02-14T02:00:17.301Z,102501.38
2023-02-14T02:03:20.577Z,102508.50
2023-02-14T02:06:28.042Z,102510.34
2023-02-14T02:09:34.512Z,102505.84
2023-02-14T02:12:36.122Z,102507.63
2023-02-14T02:16:21.737Z,102512.25
2023-02-14T02:19:54.567Z,102511.38
2023-02-14T02:23:47.790Z,102505.59
2023-02-14T02:27:00.619Z,102507.06
2023-02-14T02:30:21.962Z,102505.84
2023-02-14T02:33:51.701Z,102506.63
2023-02-14T02:37:31.726Z,102499.72
2023-02-14T02:40:45.127Z,102505.50
2023-02-14T02:44:01.187Z,102502.13
2023-02-14T02:47:11.570Z,102505.63
2023-02-14T02:50:52.350Z,102509.38
2023-02-14T02:54:02.756Z,102507.88
2023-02-14T02:57:12.808Z,102506.16
2023-02-14T03:00:16.001Z,102505.53
2023-02-14T03:03:37.489Z,102507.19
2023-02-14T03:06:39.084Z,102505.81
2023-02-14T03:09:42.055Z,102503.84
2023-02-14T03:13:28.683Z,102504.44
2023-02-14T03:16:38.422Z,102499.19
2023-02-14T03:20:11.275Z,102495.94
2023-02-14T03:23:30.406Z,102493.19
2023-02-14T03:26:45.827Z,102502.72
2023-02-14T03:30:08.398Z,102499.44
2023-02-14T03:33:33.537Z,102501.91
2023-02-14T03:36:41.879Z,102500.47
2023-02-14T03:39:52.718Z,102494.16
2023-02-14T03:43:02.702Z,102495.25
2023-02-14T03:46:10.077Z,102496.72
2023-02-14T03:49:16.709Z,102501.16
2023-02-14T03:52:20.063Z,102500.34
2023-02-14T03:55:32.953Z,102505.59
2023-02-14T03:58:46.737Z,102506.16
2023-02-14T04:01:55.933Z,102502.59
2023-02-14T04:04:59.943Z,102501.72
2023-02-14T04:08:01.343Z,102506.25
2023-02-14T04:11:04.843Z,102510.41
2023-02-14T04:14:06.456Z,102505.41
2023-02-14T04:17:27.123Z,102494.25
2023-02-14T04:20:29.402Z,102500.75
2023-02-14T04:23:30.798Z,102512.72
2023-02-14T04:26:32.197Z,102505.53
2023-02-14T04:29:33.584Z,102502.81
2023-02-14T04:32:34.963Z,102490.72
2023-02-14T04:35:36.816Z,102496.22
2023-02-14T04:38:38.199Z,102492.03
2023-02-14T04:41:39.583Z,102497.06
2023-02-14T04:44:41.013Z,102501.38
2023-02-14T04:47:42.389Z,102493.47
2023-02-14T04:50:43.780Z,102496.41
2023-02-14T04:53:45.161Z,102503.53
2023-02-14T04:56:46.535Z,102499.84
2023-02-14T04:59:47.931Z,102495.44
2023-02-14T05:02:49.460Z,102501.53
2023-02-14T05:05:50.868Z,102497.91
2023-02-14T05:08:52.244Z,102491.84
2023-02-14T05:11:54.098Z,102494.44
2023-02-14T05:14:56.097Z,102485.72
2023-02-14T05:18:01.575Z,102492.59
2023-02-14T05:21:03.200Z,102477.72
2023-02-14T05:24:05.038Z,102478.41
2023-02-14T05:27:07.476Z,102481.91
2023-02-14T05:30:09.858Z,102485.66
2023-02-14T05:33:11.496Z,102483.94
2023-02-14T05:36:13.150Z,102483.63
2023-02-14T05:39:14.643Z,102492.44
2023-02-14T05:42:16.030Z,102489.94
2023-02-14T05:45:17.416Z,102487.13
2023-02-14T05:48:18.811Z,102496.78
2023-02-14T05:51:20.198Z,102494.06
2023-02-14T05:54:21.633Z,102494.94
2023-02-14T05:57:23.183Z,102496.56
2023-02-14T06:00:24.840Z,102498.34
2023-02-14T06:03:26.693Z,102498.06
2023-02-14T06:06:28.121Z,102494.31
2023-02-14T06:09:29.504Z,102497.72
2023-02-14T06:12:30.876Z,102496.72
2023-02-14T06:15:32.252Z,102504.53
2023-02-14T06:18:33.774Z,102499.84
2023-02-14T06:21:35.332Z,102498.00
2023-02-14T06:24:36.966Z,102496.03
2023-02-14T06:27:38.371Z,102504.66
2023-02-14T06:30:39.919Z,102515.81
2023-02-14T06:33:41.437Z,102514.09
2023-02-14T06:36:43.169Z,102515.09
2023-02-14T06:39:45.276Z,102516.91
2023-02-14T06:42:46.740Z,102515.09
2023-02-14T06:45:48.178Z,102514.88
2023-02-14T06:48:49.645Z,102521.16
2023-02-14T06:51:51.088Z,102525.75
2023-02-14T06:54:52.512Z,102527.28
2023-02-14T06:57:53.892Z,102537.25
2023-02-14T07:00:56.051Z,102535.41
2023-02-14T07:03:57.437Z,102535.41
2023-02-14T07:06:58.941Z,102538.97
2023-02-14T07:10:00.443Z,102536.78
2023-02-14T07:13:02.181Z,102537.28
2023-02-14T07:16:04.031Z,102535.41
2023-02-14T07:19:05.448Z,102532.00
2023-02-14T07:22:06.854Z,102526.19
2023-02-14T07:25:08.604Z,102530.63
2023-02-14T07:28:10.059Z,102523.44
2023-02-14T07:31:12.396Z,102527.19
2023-02-14T07:34:13.921Z,102517.75
2023-02-14T07:37:16.678Z,102511.97
2023-02-14T07:40:19.922Z,102522.38
2023-02-14T07:43:21.316Z,102519.91
2023-02-14T07:46:22.716Z,102521.00
2023-02-14T07:49:24.222Z,102517.09
2023-02-14T07:52:25.670Z,102516.19
2023-02-14T07:55:27.111Z,102521.72
2023-02-14T07:58:28.487Z,102515.19
2023-02-14T08:01:30.833Z,102513.56
2023-02-14T08:04:33.866Z,102519.13
2023-02-14T08:07:35.419Z,102514.97
2023-02-14T08:10:36.821Z,102512.63
2023-02-14T08:13:38.182Z,102523.81
2023-02-14T08:16:39.741Z,102517.41
2023-02-14T08:19:41.179Z,102516.63
2023-02-14T08:22:42.571Z,102516.44
2023-02-14T08:25:44.007Z,102519.25
2023-02-14T08:28:45.430Z,102511.31
2023-02-14T08:31:47.516Z,102504.16
2023-02-14T08:34:49.037Z,102514.09
2023-02-14T08:37:50.447Z,102514.03
2023-02-14T08:40:52.258Z,102514.03
2023-02-14T08:43:53.646Z,102515.88
2023-02-14T08:46:55.068Z,102515.81
2023-02-14T08:49:56.547Z,102513.50
2023-02-14T08:52:58.023Z,102518.94
2023-02-14T08:56:08.143Z,102522.00
2023-02-14T08:59:09.568Z,102515.78
2023-02-14T09:02:16.123Z,102522.84
2023-02-14T09:05:17.787Z,102519.47
2023-02-14T09:08:19.415Z,102518.06
2023-02-14T09:11:22.894Z,102517.56
2023-02-14T09:14:24.449Z,102517.69
2023-02-14T09:17:25.948Z,102521.44
2023-02-14T09:20:27.438Z,102524.50
2023-02-14T09:23:28.869Z,102517.81
2023-02-14T09:26:30.260Z,102517.97
2023-02-14T09:29:33.859Z,102517.69
2023-02-14T09:32:35.292Z,102513.31
2023-02-14T09:35:36.723Z,102505.31
2023-02-14T09:38:38.237Z,102510.50
2023-02-14T09:41:55.164Z,102506.19
2023-02-14T09:45:06.791Z,102501.16
2023-02-14T09:48:22.358Z,102499.31
2023-02-14T09:51:28.475Z,102495.03
2023-02-14T09:54:33.136Z,102492.75
2023-02-14T09:57:56.708Z,102496.44
2023-02-14T10:01:22.035Z,102491.16
2023-02-14T10:04:34.441Z,102500.66
2023-02-14T10:07:57.872Z,102497.16
2023-02-14T10:11:06.933Z,102492.09
2023-02-14T10:14:14.373Z,102498.09
2023-02-14T10:17:22.072Z,102487.00
2023-02-14T10:20:35.500Z,102486.16
2023-02-14T10:23:41.503Z,102476.66
2023-02-14T10:26:44.384Z,102476.03
2023-02-14T10:29:45.779Z,102476.09
2023-02-14T10:33:13.704Z,102470.97
2023-02-14T10:36:44.976Z,102471.78
2023-02-14T10:39:58.459Z,102471.03
2023-02-14T10:43:18.502Z,102470.81
2023-02-14T10:46:47.705Z,102461.91
2023-02-14T10:49:57.943Z,102458.59
2023-02-14T10:53:21.008Z,102456.19
2023-02-14T10:56:36.930Z,102452.53
2023-02-14T10:59:58.363Z,102458.81
2023-02-14T11:03:05.371Z,102456.56
2023-02-14T11:06:08.977Z,102459.38
2023-02-14T11:09:12.085Z,102452.59
2023-02-14T11:12:31.634Z,102457.25
2023-02-14T11:15:39.362Z,102439.81
2023-02-14T11:18:41.626Z,102445.19
2023-02-14T11:21:45.611Z,102441.94
2023-02-14T11:24:48.313Z,102438.69
2023-02-14T11:27:55.160Z,102432.50
2023-02-14T11:30:56.924Z,102424.84
2023-02-14T11:33:59.905Z,102427.78
2023-02-14T11:37:01.541Z,102418.03
2023-02-14T11:40:05.180Z,102420.78
2023-02-14T11:43:14.625Z,102417.75
2023-02-14T11:46:27.562Z,102416.38
2023-02-14T11:49:34.698Z,102413.31
2023-02-14T11:52:49.494Z,102411.03
2023-02-14T11:55:53.728Z,102403.97
2023-02-14T11:58:59.596Z,102409.75
2023-02-14T12:02:11.257Z,102402.16
2023-02-14T12:05:28.452Z,102392.75
2023-02-14T12:08:31.803Z,102381.09
2023-02-14T12:11:33.336Z,102385.31
2023-02-14T12:14:35.590Z,102379.28
2023-02-14T12:17:39.447Z,102376.94
2023-02-14T12:20:49.147Z,102368.59
2023-02-14T12:24:12.497Z,102368.25
2023-02-14T12:27:29.139Z,102356.06
2023-02-14T12:30:33.625Z,102357.97
2023-02-14T12:33:35.879Z,102354.75
2023-02-14T12:37:01.192Z,102349.63
2023-02-14T12:40:12.216Z,102348.88
2023-02-14T12:43:40.569Z,102342.88
2023-02-14T12:47:09.889Z,102337.75
2023-02-14T12:50:33.483Z,102340.06
2023-02-14T12:53:56.108Z,102336.09
2023-02-14T12:57:21.913Z,102329.31
2023-02-14T13:00:55.624Z,102329.31
2023-02-14T13:04:15.272Z,102322.25
2023-02-14T13:07:19.659Z,102319.44
2023-02-14T13:10:45.732Z,102313.03
2023-02-14T13:14:04.404Z,102313.22
2023-02-14T13:17:16.068Z,102316.13
2023-02-14T13:20:42.746Z,102311.00
2023-02-14T13:23:53.326Z,102306.63
2023-02-14T13:27:05.070Z,102309.84
2023-02-14T13:30:16.865Z,102303.13
2023-02-14T13:33:26.315Z,102303.31
2023-02-14T13:36:28.860Z,102294.28
2023-02-14T13:39:38.862Z,102301.03
2023-02-14T13:42:47.621Z,102286.47
2023-02-14T13:45:54.170Z,102282.16
2023-02-14T13:48:59.222Z,102286.66
2023-02-14T13:52:04.914Z,102287.50
2023-02-14T13:55:09.885Z,102282.63
2023-02-14T13:58:21.578Z,102281.22
2023-02-14T14:01:39.077Z,102273.81
2023-02-14T14:04:40.543Z,102263.69
2023-02-14T14:07:41.986Z,102261.59
2023-02-14T14:10:52.933Z,102261.63
2023-02-14T14:14:25.160Z,102263.59
2023-02-14T14:17:27.553Z,102263.78
2023-02-14T14:20:29.238Z,102262.06
2023-02-14T14:23:34.854Z,102264.03
2023-02-14T14:26:47.680Z,102260.53
2023-02-14T14:29:53.432Z,102255.41
2023-02-14T14:32:55.113Z,102248.38
2023-02-14T14:35:58.507Z,102254.53
2023-02-14T14:39:00.288Z,102248.38
2023-02-14T14:42:07.400Z,102239.56
2023-02-14T14:45:26.278Z,102230.78
2023-02-14T14:48:32.932Z,102226.41
2023-02-14T14:51:35.791Z,102223.78
2023-02-14T14:54:37.225Z,102217.63
2023-02-14T14:57:39.240Z,102218.34
2023-02-14T15:00:51.291Z,102213.88
2023-02-14T15:03:52.826Z,102221.63
2023-02-14T15:07:18.723Z,102208.34
2023-02-14T15:10:31.006Z,102206.56
2023-02-14T15:13:53.428Z,102202.88
2023-02-14T15:17:00.283Z,102201.13
2023-02-14T15:20:05.616Z,102206.41
2023-02-14T15:23:07.846Z,102208.03
2023-02-14T15:26:17.698Z,102204.44
2023-02-14T15:29:26.568Z,102205.41
2023-02-14T15:32:32.469Z,102194.91
2023-02-14T15:35:39.007Z,102194.78
2023-02-14T15:38:41.656Z,102197.47
2023-02-14T15:41:44.926Z,102203.53
2023-02-14T15:44:46.317Z,102203.50
2023-02-14T15:47:51.533Z,102201.69
2023-02-14T15:50:56.026Z,102199.84
2023-02-14T15:54:03.991Z,102197.75
2023-02-14T15:57:17.708Z,102206.38
2023-02-14T16:00:21.553Z,102208.03
2023-02-14T16:03:26.520Z,102206.97
2023-02-14T16:06:39.676Z,102201.69
2023-02-14T16:09:41.089Z,102200.63
2023-02-14T16:12:42.559Z,102198.81
2023-02-14T16:15:59.457Z,102199.56
2023-02-14T16:19:01.635Z,102203.75
2023-02-14T16:22:03.531Z,102207.13
2023-02-14T16:25:05.476Z,102199.91
2023-02-14T16:28:07.056Z,102195.56
2023-02-14T16:31:12.825Z,102192.91
2023-02-14T16:34:16.218Z,102198.03
2023-02-14T16:37:38.206Z,102194.50
2023-02-14T16:40:43.228Z,102197.91
2023-02-14T16:43:45.571Z,102196.09
2023-02-14T16:46:46.981Z,102205.78
2023-02-14T16:49:50.461Z,102202.03
2023-02-14T16:52:51.911Z,102201.16
2023-02-14T16:55:55.680Z,102199.25
2023-02-14T16:59:00.052Z,102201.81
2023-02-14T17:02:02.176Z,102198.41
2023-02-14T17:05:04.900Z,102206.22
2023-02-14T17:08:09.984Z,102208.59
2023-02-14T17:11:11.738Z,102212.34
2023-02-14T17:14:17.480Z,102203.19
2023-02-14T17:17:20.425Z,102207.56
2023-02-14T17:20:22.494Z,102211.69
2023-02-14T17:23:24.340Z,102222.97
2023-02-14T17:26:25.767Z,102226.28
2023-02-14T17:29:27.227Z,102223.06
2023-02-14T17:32:28.690Z,102235.47
2023-02-14T17:35:30.851Z,102233.94
2023-02-14T17:38:33.261Z,102230.53
2023-02-14T17:41:34.965Z,102227.13
2023-02-14T17:44:37.431Z,102232.34
2023-02-14T17:47:39.789Z,102241.03
2023-02-14T17:50:41.256Z,102230.34
2023-02-14T17:53:42.887Z,102241.44
2023-02-14T17:56:44.365Z,102239.47
2023-02-14T17:59:46.707Z,102240.13
2023-02-14T18:02:49.165Z,102236.53
2023-02-14T18:05:50.999Z,102232.28
2023-02-14T18:08:56.590Z,102231.34
2023-02-14T18:11:58.536Z,102222.28
2023-02-14T18:15:00.064Z,102223.22
2023-02-14T18:18:01.588Z,102225.78
2023-02-14T18:21:04.934Z,102223.22
2023-02-14T18:24:07.289Z,102226.88
2023-02-14T18:27:08.765Z,102219.03
2023-02-14T18:30:10.818Z,102209.41
2023-02-14T18:33:13.130Z,102212.16
2023-02-14T18:36:17.894Z,102210.09
2023-02-14T18:39:20.038Z,102204.66
2023-02-14T18:42:21.627Z,102200.03
2023-02-14T18:45:23.131Z,102195.81
2023-02-14T18:48:24.562Z,102197.66
2023-02-14T18:51:27.096Z,102189.56
2023-02-14T18:54:28.536Z,102194.19
2023-02-14T18:57:30.140Z,102188.56
2023-02-14T19:00:33.256Z,102189.69
2023-02-14T19:03:34.648Z,102197.31
2023-02-14T19:06:36.550Z,102194.19
2023-02-14T19:09:40.017Z,102203.19
2023-02-14T19:12:41.434Z,102189.16
2023-02-14T19:15:42.836Z,102182.59
2023-02-14T19:18:44.428Z,102180.50
2023-02-14T19:21:45.984Z,102185.06
2023-02-14T19:24:48.241Z,102179.97
2023-02-14T19:27:49.643Z,102174.78
2023-02-14T19:30:51.568Z,102182.47
2023-02-14T19:33:53.625Z,102181.97
2023-02-14T19:36:57.123Z,102182.59
2023-02-14T19:39:58.615Z,102173.91
2023-02-14T19:42:59.997Z,102173.72
2023-02-14T19:46:04.680Z,102174.78
2023-02-14T19:49:06.426Z,102168.03
2023-02-14T19:52:24.617Z,102163.19
2023-02-14T19:55:27.601Z,102171.69
2023-02-14T19:58:29.104Z,102162.22
2023-02-14T20:01:34.531Z,102168.00
2023-02-14T20:04:35.970Z,102168.13
2023-02-14T20:07:37.429Z,102167.13
2023-02-14T20:10:38.920Z,102173.47
2023-02-14T20:13:40.305Z,102167.25
2023-02-14T20:16:41.781Z,102154.31
2023-02-14T20:19:43.259Z,102157.03
2023-02-14T20:22:44.632Z,102151.38
2023-02-14T20:25:46.061Z,102149.88
2023-02-14T20:28:48.807Z,102146.88
2023-02-14T20:31:52.499Z,102146.53
2023-02-14T20:34:54.116Z,102149.13
2023-02-14T20:37:55.501Z,102139.22
2023-02-14T20:40:57.022Z,102133.50
2023-02-14T20:44:07.293Z,102125.13
2023-02-14T20:47:10.762Z,102131.84
2023-02-14T20:50:12.251Z,102125.47
2023-02-14T20:53:13.688Z,102132.94
2023-02-14T20:56:15.845Z,102133.91
2023-02-14T20:59:26.936Z,102138.31
2023-02-14T21:02:28.390Z,102126.78
2023-02-14T21:05:29.763Z,102121.22
2023-02-14T21:08:31.590Z,102124.44
2023-02-14T21:11:33.104Z,102121.41
2023-02-14T21:14:34.598Z,102116.44
2023-02-14T21:17:36.081Z,102112.00
2023-02-14T21:20:38.580Z,102115.50
2023-02-14T21:23:41.322Z,102112.25
2023-02-14T21:26:43.369Z,102119.22
2023-02-14T21:29:45.002Z,102114.78
2023-02-14T21:32:46.387Z,102118.19
2023-02-14T21:35:47.771Z,102115.84
2023-02-14T21:38:49.927Z,102116.84
2023-02-14T21:41:51.320Z,102106.25
2023-02-14T21:45:11.344Z,102099.19
2023-02-14T21:48:31.661Z,102088.59
2023-02-14T21:51:33.080Z,102105.06
2023-02-14T21:54:34.458Z,102096.97
2023-02-14T21:57:35.866Z,102098.03
2023-02-14T22:00:37.320Z,102092.72
2023-02-14T22:03:38.708Z,102085.34
2023-02-14T22:06:41.698Z,102081.78
2023-02-14T22:09:43.131Z,102080.78
2023-02-14T22:12:44.578Z,102079.31
2023-02-14T22:15:46.100Z,102077.75
2023-02-14T22:18:47.919Z,102070.97
2023-02-14T22:21:49.321Z,102070.09
2023-02-14T22:24:50.747Z,102071.59
2023-02-14T22:27:52.204Z,102073.16
2023-02-14T22:30:53.717Z,102076.47
2023-02-14T22:33:55.506Z,102072.16
2023-02-14T22:36:57.010Z,102072.38
2023-02-14T22:39:58.406Z,102070.38
2023-02-14T22:43:00.607Z,102073.81
2023-02-14T22:46:07.783Z,102064.81
2023-02-14T22:49:09.304Z,102073.56
2023-02-14T22:52:10.754Z,102058.09
2023-02-14T22:55:12.180Z,102064.34
2023-02-14T22:58:13.585Z,102056.69
2023-02-14T23:01:17.781Z,102059.34
2023-02-14T23:04:24.829Z,102050.09
2023-02-14T23:07:26.193Z,102051.75
2023-02-14T23:10:27.644Z,102047.25
2023-02-14T23:13:47.704Z,102049.81
2023-02-14T23:17:07.918Z,102053.41
2023-02-14T23:20:27.928Z,102042.41
2023-02-14T23:23:33.480Z,102049.31
2023-02-14T23:26:37.133Z,102051.91
2023-02-14T23:29:38.756Z,102057.88
2023-02-14T23:32:40.294Z,102050.22
2023-02-14T23:35:41.712Z,102057.34
2023-02-14T23:38:43.083Z,102061.34
2023-02-14T23:41:47.411Z,102067.34
2023-02-14T23:44:49.385Z,102061.31
2023-02-14T23:47:50.876Z,102062.59
2023-02-14T23:50:52.312Z,102066.84
2023-02-14T23:53:54.885Z,102066.00
2023-02-14T23:56:57.459Z,102067.00
